createdAt,value
2018-01-16T00:00:08.299Z,85.82
2018-01-16T00:02:37.446Z,85.87
2018-01-16T00:07:35.946Z,86.01
2018-01-16T00:10:05.482Z,86.36
2018-01-16T00:12:34.564Z,86.21
2018-01-16T00:15:04.436Z,86.11
2018-01-16T00:17:33.698Z,86.08
2018-01-16T00:20:03.660Z,86.10
2018-01-16T00:22:41.891Z,86.32
2018-01-16T00:25:11.014Z,86.19
2018-01-16T00:27:40.161Z,86.20
2018-01-16T00:30:09.624Z,86.16
2018-01-16T00:32:38.775Z,85.98
2018-01-16T00:35:07.877Z,85.71
2018-01-16T00:37:37.307Z,85.49
2018-01-16T00:40:06.418Z,85.21
2018-01-16T00:42:35.614Z,84.87
2018-01-16T00:45:04.744Z,84.80
2018-01-16T00:47:33.863Z,84.62
2018-01-16T00:50:04.447Z,83.87
2018-01-16T00:52:33.549Z,82.81
2018-01-16T00:55:02.851Z,82.19
2018-01-16T00:57:31.942Z,81.54
2018-01-16T01:00:03.042Z,81.04
2018-01-16T01:02:32.458Z,80.82
2018-01-16T01:05:01.922Z,80.27
2018-01-16T01:07:31.014Z,80.28
2018-01-16T01:10:00.407Z,80.12
2018-01-16T01:12:29.621Z,79.89
2018-01-16T01:14:58.708Z,79.70
2018-01-16T01:17:28.089Z,79.99
2018-01-16T01:19:57.586Z,79.63
2018-01-16T01:22:26.695Z,79.39
2018-01-16T01:24:56.380Z,79.42
2018-01-16T01:27:25.446Z,79.04
2018-01-16T01:29:54.522Z,77.52
2018-01-16T01:32:23.926Z,77.90
2018-01-16T01:34:53.067Z,78.55
2018-01-16T01:37:22.162Z,78.92
2018-01-16T01:39:51.640Z,78.56
2018-01-16T01:42:20.695Z,77.77
2018-01-16T01:44:49.948Z,76.74
2018-01-16T01:47:19.653Z,76.21
2018-01-16T01:49:48.749Z,75.57
2018-01-16T01:52:17.910Z,74.81
2018-01-16T01:54:48.374Z,73.54
2018-01-16T01:57:17.598Z,72.83
2018-01-16T01:59:46.683Z,72.08
2018-01-16T02:02:16.342Z,71.24
2018-01-16T02:04:45.463Z,70.64
2018-01-16T02:07:14.571Z,70.38
2018-01-16T02:09:43.961Z,70.49
2018-01-16T02:12:13.087Z,70.75
2018-01-16T02:14:42.251Z,70.85
2018-01-16T02:17:11.327Z,70.96
2018-01-16T02:19:40.520Z,70.63
2018-01-16T02:22:09.899Z,70.78
2018-01-16T02:24:38.979Z,71.05
2018-01-16T02:27:08.064Z,70.87
2018-01-16T02:29:37.137Z,70.87
2018-01-16T02:32:07.056Z,71.31
2018-01-16T02:34:36.447Z,71.43
2018-01-16T02:37:05.636Z,71.42
2018-01-16T02:39:34.840Z,71.19
2018-01-16T02:42:04.482Z,71.34
2018-01-16T02:44:33.687Z,71.07
2018-01-16T02:47:03.661Z,71.09
2018-01-16T02:49:32.862Z,71.10
2018-01-16T02:52:02.749Z,71.50
2018-01-16T02:54:32.226Z,71.47
2018-01-16T02:57:10.323Z,71.69
2018-01-16T02:59:39.873Z,71.79
2018-01-16T03:02:09.190Z,71.93
2018-01-16T03:04:38.291Z,71.79
2018-01-16T03:07:07.950Z,72.15
2018-01-16T03:09:37.012Z,73.07
2018-01-16T03:12:06.235Z,73.77
2018-01-16T03:14:35.647Z,74.44
2018-01-16T03:17:04.886Z,75.27
2018-01-16T03:19:33.974Z,76.01
2018-01-16T03:22:05.187Z,76.23
2018-01-16T03:24:34.282Z,76.27
2018-01-16T03:27:03.850Z,76.49
2018-01-16T03:29:32.941Z,76.43
2018-01-16T03:32:03.080Z,75.92
2018-01-16T03:34:32.164Z,75.66
2018-01-16T03:37:01.264Z,74.48
2018-01-16T03:39:30.687Z,73.22
2018-01-16T03:41:59.779Z,72.90
2018-01-16T03:44:28.935Z,72.76
2018-01-16T03:46:58.330Z,72.50
2018-01-16T03:49:27.389Z,72.23
2018-01-16T03:51:56.473Z,72.44
2018-01-16T03:54:25.902Z,72.35
2018-01-16T03:56:54.979Z,72.29
2018-01-16T03:59:24.059Z,72.07
2018-01-16T04:01:53.646Z,72.61
2018-01-16T04:04:22.735Z,72.96
2018-01-16T04:06:51.861Z,72.98
2018-01-16T04:09:21.245Z,73.42
2018-01-16T04:11:50.380Z,73.28
2018-01-16T04:14:19.472Z,73.25
2018-01-16T04:16:48.645Z,73.10
2018-01-16T04:19:18.080Z,73.24
2018-01-16T04:21:47.550Z,73.56
2018-01-16T04:24:16.633Z,73.54
2018-01-16T04:26:45.741Z,74.15
2018-01-16T04:29:15.144Z,74.14
2018-01-16T04:31:44.241Z,74.24
2018-01-16T04:34:13.340Z,75.17
2018-01-16T04:36:42.726Z,75.93
2018-01-16T04:39:11.847Z,76.51
2018-01-16T04:41:40.955Z,77.49
2018-01-16T04:44:10.435Z,78.76
2018-01-16T04:46:39.527Z,79.71
2018-01-16T04:49:08.588Z,80.30
2018-01-16T04:51:37.964Z,81.25
2018-01-16T04:54:07.158Z,81.30
2018-01-16T04:56:36.253Z,81.35
2018-01-16T04:59:05.673Z,81.50
2018-01-16T05:01:34.781Z,81.61
2018-01-16T05:04:04.576Z,81.53
2018-01-16T05:06:33.685Z,81.32
2018-01-16T05:09:03.375Z,81.17
2018-01-16T05:11:32.878Z,81.17
2018-01-16T05:14:02.327Z,81.19
2018-01-16T05:16:31.414Z,81.19
2018-01-16T05:19:00.738Z,81.48
2018-01-16T05:21:30.062Z,80.77
2018-01-16T05:23:59.600Z,80.01
2018-01-16T05:26:28.718Z,79.57
2018-01-16T05:28:57.783Z,79.17
2018-01-16T05:31:27.202Z,78.46
2018-01-16T05:33:56.323Z,78.52
2018-01-16T05:36:25.402Z,78.20
2018-01-16T05:38:54.784Z,78.16
2018-01-16T05:41:24.074Z,79.01
2018-01-16T05:43:53.820Z,79.69
2018-01-16T05:46:23.298Z,79.86
2018-01-16T05:48:52.566Z,80.61
2018-01-16T05:51:21.650Z,80.76
2018-01-16T05:53:51.077Z,81.29
2018-01-16T05:56:20.180Z,81.23
2018-01-16T05:58:49.363Z,81.70
2018-01-16T06:01:18.759Z,82.36
2018-01-16T06:03:48.837Z,82.41
2018-01-16T06:06:18.083Z,82.61
2018-01-16T06:08:47.541Z,82.87
2018-01-16T06:11:16.654Z,82.85
2018-01-16T06:13:45.740Z,83.19
2018-01-16T06:16:15.691Z,83.13
2018-01-16T06:18:45.092Z,82.48
2018-01-16T06:21:14.305Z,82.85
2018-01-16T06:23:43.768Z,82.94
2018-01-16T06:26:13.060Z,82.82
2018-01-16T06:28:42.160Z,82.24
2018-01-16T06:31:11.589Z,81.95
2018-01-16T06:33:40.721Z,82.38
2018-01-16T06:36:10.453Z,82.54
2018-01-16T06:38:39.868Z,82.75
2018-01-16T06:41:08.984Z,82.78
2018-01-16T06:43:38.070Z,83.01
2018-01-16T06:46:07.872Z,83.42
2018-01-16T06:48:37.013Z,83.78
2018-01-16T06:51:06.159Z,83.68
2018-01-16T06:53:35.556Z,83.84
2018-01-16T06:56:06.087Z,84.02
2018-01-16T06:58:35.196Z,83.72
2018-01-16T07:01:05.813Z,83.51
2018-01-16T07:03:34.970Z,83.24
2018-01-16T07:06:05.095Z,82.77
2018-01-16T07:08:34.509Z,82.29
2018-01-16T07:11:05.323Z,81.98
2018-01-16T07:13:34.511Z,81.17
2018-01-16T07:18:49.716Z,80.06
2018-01-16T07:21:20.267Z,79.65
2018-01-16T07:23:49.586Z,79.28
2018-01-16T07:26:19.404Z,79.55
2018-01-16T07:28:48.811Z,78.32
2018-01-16T07:31:17.960Z,77.31
2018-01-16T07:33:47.095Z,76.74
2018-01-16T07:36:16.522Z,76.46
2018-01-16T07:38:45.666Z,76.07
2018-01-16T07:41:14.844Z,76.63
2018-01-16T07:43:44.004Z,74.51
2018-01-16T07:46:13.134Z,74.38
2018-01-16T07:48:42.538Z,73.64
2018-01-16T07:51:11.696Z,73.01
2018-01-16T07:53:40.795Z,72.34
2018-01-16T07:56:09.968Z,72.60
2018-01-16T07:58:39.070Z,72.76
2018-01-16T08:01:08.463Z,72.61
2018-01-16T08:03:37.564Z,72.02
2018-01-16T08:06:06.711Z,71.70
2018-01-16T08:08:35.978Z,71.85
2018-01-16T08:11:05.682Z,72.14
2018-01-16T08:13:34.817Z,72.71
2018-01-16T08:16:06.374Z,72.64
2018-01-16T08:18:35.608Z,72.83
2018-01-16T08:21:05.378Z,73.12
2018-01-16T08:23:34.815Z,73.37
2018-01-16T08:26:04.618Z,73.95
2018-01-16T08:28:33.744Z,73.74
2018-01-16T08:31:04.320Z,74.09
2018-01-16T08:33:33.448Z,74.45
2018-01-16T08:36:03.857Z,74.49
2018-01-16T08:38:33.278Z,74.58
2018-01-16T08:41:02.912Z,74.84
2018-01-16T08:43:32.037Z,74.57
2018-01-16T08:46:02.592Z,74.79
2018-01-16T08:48:31.694Z,75.12
2018-01-16T08:51:00.910Z,75.37
2018-01-16T08:53:31.458Z,75.36
2018-01-16T08:56:00.712Z,75.69
2018-01-16T08:58:29.875Z,75.97
2018-01-16T09:00:59.247Z,76.12
2018-01-16T09:03:28.472Z,76.31
2018-01-16T09:05:57.583Z,75.91
2018-01-16T09:08:27.001Z,75.53
2018-01-16T09:10:56.132Z,75.73
2018-01-16T09:13:25.271Z,75.90
2018-01-16T09:15:54.754Z,75.38
2018-01-16T09:18:23.845Z,74.93
2018-01-16T09:20:53.088Z,74.47
2018-01-16T09:23:22.501Z,73.97
2018-01-16T09:25:51.623Z,74.05
2018-01-16T09:28:20.751Z,74.11
2018-01-16T09:30:50.311Z,74.01
2018-01-16T09:33:19.410Z,74.23
2018-01-16T09:35:48.512Z,73.37
2018-01-16T09:38:17.960Z,73.70
2018-01-16T09:40:47.050Z,73.11
2018-01-16T09:43:16.161Z,73.33
2018-01-16T09:45:45.564Z,73.17
2018-01-16T09:48:14.672Z,73.12
2018-01-16T09:50:43.785Z,72.20
2018-01-16T09:53:12.932Z,71.79
2018-01-16T09:55:42.041Z,71.17
2018-01-16T09:58:11.163Z,71.31
2018-01-16T10:00:40.639Z,72.38
2018-01-16T10:03:09.727Z,72.85
2018-01-16T10:05:38.838Z,73.79
2018-01-16T10:08:08.545Z,74.83
2018-01-16T10:10:37.643Z,76.08
2018-01-16T10:13:06.760Z,77.35
2018-01-16T10:15:36.180Z,77.80
2018-01-16T10:18:06.018Z,78.61
2018-01-16T10:20:35.110Z,79.55
2018-01-16T10:23:04.879Z,79.89
2018-01-16T10:25:33.995Z,79.94
2018-01-16T10:28:05.644Z,80.38
2018-01-16T10:30:35.336Z,80.60
2018-01-16T10:33:04.810Z,80.02
2018-01-16T10:35:33.966Z,80.07
2018-01-16T10:38:04.927Z,80.21
2018-01-16T10:40:34.398Z,78.87
2018-01-16T10:43:05.216Z,78.62
2018-01-16T10:45:34.634Z,78.43
2018-01-16T10:48:06.131Z,78.53
2018-01-16T10:50:35.683Z,78.51
2018-01-16T10:53:04.801Z,78.31
2018-01-16T10:55:34.100Z,79.16
2018-01-16T10:58:06.464Z,75.47
2018-01-16T11:00:35.980Z,75.29
2018-01-16T11:03:19.213Z,75.56
2018-01-16T11:05:48.810Z,76.56
2018-01-16T11:08:17.942Z,76.03
2018-01-16T11:10:59.647Z,75.44
2018-01-16T11:13:28.774Z,74.77
2018-01-16T11:15:57.953Z,73.71
2018-01-16T11:18:27.401Z,74.05
2018-01-16T11:20:57.880Z,73.46
2018-01-16T11:23:27.047Z,73.16
2018-01-16T11:25:57.362Z,72.94
2018-01-16T11:28:26.477Z,71.36
2018-01-16T11:30:56.031Z,71.12
2018-01-16T11:33:25.706Z,70.31
2018-01-16T11:53:10.314Z,63.73
2018-01-16T11:55:40.059Z,64.64
2018-01-16T11:58:09.362Z,63.50
2018-01-16T12:00:38.499Z,63.11
2018-01-16T12:03:08.744Z,63.09
2018-01-16T12:05:38.017Z,62.18
2018-01-16T12:08:07.180Z,62.10
2018-01-16T12:10:36.824Z,61.72
2018-01-16T12:13:06.579Z,61.50
2018-01-16T12:15:35.892Z,61.69
2018-01-16T12:18:06.634Z,60.66
2018-01-16T12:20:35.789Z,60.20
2018-01-16T12:23:04.942Z,60.59
2018-01-16T12:25:34.596Z,60.44
2018-01-16T12:28:04.936Z,60.41
2018-01-16T12:30:34.676Z,59.59
2018-01-16T12:33:06.446Z,59.30
2018-01-16T12:35:36.134Z,60.01
2018-01-16T12:38:07.382Z,59.80
2018-01-16T12:40:36.518Z,59.39
2018-01-16T12:43:06.763Z,58.58
2018-01-16T12:45:36.223Z,58.36
2018-01-16T12:48:06.506Z,58.36
2018-01-16T12:50:36.128Z,59.29
2018-01-16T12:53:05.647Z,60.18
2018-01-16T12:55:34.784Z,60.02
2018-01-16T12:58:05.628Z,59.62
2018-01-16T13:00:34.880Z,60.28
2018-01-16T13:03:04.367Z,60.47
2018-01-16T13:05:34.027Z,60.16
2018-01-16T13:08:05.632Z,60.67
2018-01-16T13:10:34.935Z,60.80
2018-01-16T13:13:05.040Z,60.53
2018-01-16T13:21:24.627Z,60.70
2018-01-16T13:23:53.981Z,59.67
2018-01-16T13:26:23.481Z,58.34
2018-01-16T13:28:53.139Z,58.42
2018-01-16T13:31:22.346Z,58.51
2018-01-16T13:33:51.509Z,58.91
2018-01-16T13:36:20.714Z,58.91
2018-01-16T13:38:49.866Z,59.43
2018-01-16T13:41:19.303Z,59.55
2018-01-16T13:43:48.474Z,59.35
2018-01-16T13:46:17.676Z,59.49
2018-01-16T13:48:47.798Z,59.41
2018-01-16T13:51:16.985Z,59.00
2018-01-16T13:53:46.661Z,59.17
2018-01-16T13:56:16.015Z,59.08
2018-01-16T13:58:45.183Z,59.63
2018-01-16T14:01:14.604Z,60.09
2018-01-16T14:03:43.760Z,59.96
2018-01-16T14:06:14.848Z,60.47
2018-01-16T14:08:44.327Z,60.86
2018-01-16T14:11:13.432Z,61.32
2018-01-16T14:13:42.575Z,61.55
2018-01-16T14:16:11.996Z,62.26
2018-01-16T14:18:41.131Z,64.27
2018-01-16T14:21:10.264Z,66.64
2018-01-16T14:23:40.832Z,67.81
2018-01-16T14:26:10.020Z,67.89
2018-01-16T14:28:39.160Z,69.78
2018-01-16T14:31:10.523Z,70.98
2018-01-16T14:33:39.707Z,72.42
2018-01-16T14:36:11.031Z,72.55
2018-01-16T14:38:40.458Z,72.85
2018-01-16T14:41:09.642Z,73.72
2018-01-16T14:43:38.827Z,73.56
2018-01-16T14:46:08.229Z,73.55
2018-01-16T14:48:37.387Z,73.93
2018-01-16T14:51:07.668Z,73.71
2018-01-16T14:54:07.759Z,73.48
2018-01-16T14:56:36.959Z,73.44
2018-01-16T14:59:06.415Z,72.99
2018-01-16T15:01:35.596Z,73.10
2018-01-16T15:04:07.683Z,73.14
2018-01-16T15:06:37.354Z,72.37
2018-01-16T15:09:06.770Z,72.22
2018-01-16T15:11:35.948Z,71.58
2018-01-16T15:14:05.812Z,71.15
2018-01-16T15:16:35.087Z,70.90
2018-01-16T15:19:07.482Z,70.43
2018-01-16T15:21:38.010Z,70.06
2018-01-16T15:24:07.433Z,69.34
2018-01-16T15:26:36.593Z,68.50
2018-01-16T15:29:06.256Z,68.68
2018-01-16T15:31:35.397Z,67.79
2018-01-16T15:34:14.216Z,66.79
2018-01-16T15:36:43.975Z,66.24
2018-01-16T15:39:13.200Z,65.57
2018-01-16T15:41:42.387Z,65.78
2018-01-16T15:44:13.025Z,64.31
2018-01-16T15:46:42.149Z,64.15
2018-01-16T15:49:11.312Z,64.08
2018-01-16T15:51:40.742Z,63.62
2018-01-16T15:54:10.548Z,63.43
2018-01-16T15:56:40.279Z,63.11
2018-01-16T15:59:09.744Z,62.92
2018-01-16T16:01:38.868Z,63.46
2018-01-16T16:04:08.799Z,63.16
2018-01-16T16:06:38.786Z,63.00
2018-01-16T16:09:07.964Z,63.24
2018-01-16T16:11:37.132Z,62.99
2018-01-16T16:14:08.395Z,63.01
2018-01-16T16:16:37.560Z,63.18
2018-01-16T16:19:06.907Z,63.00
2018-01-16T16:21:36.080Z,63.30
2018-01-16T16:24:06.400Z,63.24
2018-01-16T16:26:35.901Z,63.46
2018-01-16T16:29:06.539Z,63.00
2018-01-16T16:31:35.716Z,63.26
2018-01-16T16:34:07.952Z,63.06
2018-01-16T16:36:37.082Z,63.26
2018-01-16T16:39:06.681Z,62.83
2018-01-16T16:41:37.111Z,63.27
2018-01-16T16:44:08.215Z,63.15
2018-01-16T16:46:37.336Z,62.19
2018-01-16T16:49:07.882Z,62.00
2018-01-16T16:51:37.094Z,61.66
2018-01-16T16:54:06.410Z,61.60
2018-01-16T16:56:37.058Z,61.84
2018-01-16T16:59:06.385Z,62.25
2018-01-16T17:01:35.872Z,62.15
2018-01-16T17:04:07.993Z,62.14
2018-01-16T17:06:37.303Z,61.35
2018-01-16T17:09:07.160Z,61.83
2018-01-16T17:11:36.783Z,61.57
2018-01-16T17:14:06.538Z,61.70
2018-01-16T17:16:35.679Z,61.29
2018-01-16T17:19:05.529Z,60.48
2018-01-16T17:21:34.761Z,61.30
2018-01-16T17:24:05.771Z,61.17
2018-01-16T17:26:35.513Z,60.49
2018-01-16T17:29:05.422Z,60.73
2018-01-16T17:31:34.712Z,59.71
2018-01-16T17:34:06.820Z,58.95
2018-01-16T17:36:36.214Z,58.80
2018-01-16T17:39:05.752Z,58.36
2018-01-16T17:41:35.156Z,58.51
2018-01-16T17:44:05.599Z,58.87
2018-01-16T17:46:34.829Z,58.74
2018-01-16T17:49:05.466Z,58.84
2018-01-16T17:51:34.687Z,59.44
2018-01-16T17:54:05.979Z,60.14
2018-01-16T17:56:35.914Z,60.68
2018-01-16T17:59:05.506Z,61.94
2018-01-16T18:01:35.543Z,63.05
2018-01-16T18:04:06.369Z,64.04
2018-01-16T18:06:35.658Z,64.24
2018-01-16T18:09:07.182Z,64.63
2018-01-16T18:11:36.660Z,64.86
2018-01-16T18:14:05.954Z,65.21
2018-01-16T18:16:35.180Z,65.09
2018-01-16T18:21:40.035Z,65.56
2018-01-16T18:24:11.828Z,65.55
2018-01-16T18:26:41.639Z,65.61
2018-01-16T18:29:10.784Z,65.74
2018-01-16T18:31:39.928Z,65.93
2018-01-16T18:34:09.396Z,66.01
2018-01-16T18:36:38.522Z,65.94
2018-01-16T18:39:07.659Z,66.42
2018-01-16T18:41:37.086Z,65.44
2018-01-16T18:44:07.358Z,64.87
2018-01-16T18:46:37.436Z,64.81
2018-01-16T18:49:07.194Z,64.45
2018-01-16T18:51:36.348Z,64.35
2018-01-16T18:54:06.540Z,64.11
2018-01-16T18:56:36.104Z,63.70
2018-01-16T18:59:05.724Z,63.81
2018-01-16T19:01:34.954Z,63.94
2018-01-16T19:04:06.127Z,63.83
2018-01-16T19:06:35.344Z,63.55
2018-01-16T19:09:05.659Z,63.56
2018-01-16T19:11:35.294Z,63.55
2018-01-16T19:14:06.735Z,63.45
2018-01-16T19:16:35.895Z,63.88
2018-01-16T19:19:05.607Z,63.76
2018-01-16T19:21:34.772Z,64.09
2018-01-16T19:24:05.795Z,64.19
2018-01-16T19:26:35.543Z,64.66
2018-01-16T19:29:05.175Z,64.91
2018-01-16T19:31:34.379Z,64.66
2018-01-16T19:34:04.955Z,64.73
2018-01-16T19:36:34.257Z,64.67
2018-01-16T19:39:03.723Z,65.34
2018-01-16T19:41:33.227Z,65.87
2018-01-16T19:44:04.399Z,66.48
2018-01-16T19:46:33.636Z,66.49
2018-01-16T19:49:03.803Z,66.69
2018-01-16T19:51:33.045Z,67.00
2018-01-16T19:54:03.336Z,67.13
2018-01-16T19:56:38.224Z,67.11
2018-01-16T19:59:07.407Z,67.33
2018-01-16T20:01:36.550Z,67.69
2018-01-16T20:04:06.627Z,67.14
2018-01-16T20:06:35.783Z,66.80
2018-01-16T20:09:05.963Z,66.83
2018-01-16T20:11:35.438Z,66.64
2018-01-16T20:14:05.712Z,66.51
2018-01-16T20:16:34.908Z,66.65
2018-01-16T20:19:05.011Z,66.66
2018-01-16T20:21:34.243Z,66.36
2018-01-16T20:24:04.378Z,66.11
2018-01-16T20:26:33.837Z,65.99
2018-01-16T20:29:03.325Z,65.76
2018-01-16T20:31:32.601Z,66.00
2018-01-16T20:34:04.083Z,66.08
2018-01-16T20:36:33.644Z,66.32
2018-01-16T20:39:04.161Z,66.41
2018-01-16T20:41:33.384Z,65.90
2018-01-16T20:44:03.829Z,65.66
2018-01-16T20:46:33.259Z,65.59
2018-01-16T20:49:02.575Z,65.62
2018-01-16T20:51:31.768Z,65.08
2018-01-16T20:54:01.402Z,65.04
2018-01-16T20:56:30.633Z,65.18
2018-01-16T20:58:59.755Z,65.23
2018-01-16T21:01:29.187Z,65.59
2018-01-16T21:03:58.295Z,66.02
2018-01-16T21:06:27.374Z,66.46
2018-01-16T21:08:56.937Z,67.01
2018-01-16T21:11:26.706Z,67.57
2018-01-16T21:13:55.817Z,68.18
2018-01-16T21:16:26.939Z,68.89
2018-01-16T21:18:56.376Z,69.10
2018-01-16T21:21:26.288Z,69.28
2018-01-16T21:23:57.407Z,69.12
2018-01-16T21:26:26.727Z,69.32
2018-01-16T21:28:56.042Z,69.40
2018-01-16T21:31:25.544Z,69.49
2018-01-16T21:33:54.686Z,69.63
2018-01-16T21:36:24.019Z,69.67
2018-01-16T21:38:53.827Z,69.82
2018-01-16T21:41:22.948Z,69.73
2018-01-16T21:43:52.283Z,69.89
2018-01-16T21:46:21.660Z,70.25
2018-01-16T21:48:50.823Z,70.27
2018-01-16T21:51:20.021Z,70.37
2018-01-16T21:53:49.164Z,70.72
2018-01-16T21:56:18.278Z,70.62
2018-01-16T21:58:47.696Z,70.55
2018-01-16T22:01:16.846Z,70.80
2018-01-16T22:03:45.941Z,71.04
2018-01-16T22:06:16.366Z,70.88
2018-01-16T22:08:45.514Z,70.87
2018-01-16T22:11:14.906Z,70.76
2018-01-16T22:13:44.016Z,70.60
2018-01-16T22:16:13.188Z,70.34
2018-01-16T22:18:42.605Z,70.35
2018-01-16T22:21:11.749Z,70.40
2018-01-16T22:23:40.852Z,70.26
2018-01-16T22:26:10.140Z,70.99
2018-01-16T22:28:39.285Z,71.07
2018-01-16T22:31:08.646Z,70.91
2018-01-16T22:33:38.061Z,70.81
2018-01-16T22:36:07.179Z,70.76
2018-01-16T22:38:36.337Z,70.68
2018-01-16T22:41:05.899Z,70.91
2018-01-16T22:43:35.006Z,70.68
2018-01-16T22:46:05.483Z,70.60
2018-01-16T22:48:34.883Z,70.64
2018-01-16T22:51:04.386Z,70.58
2018-01-16T22:53:34.644Z,70.38
2018-01-16T22:56:05.799Z,70.24
2018-01-16T22:58:34.921Z,70.29
2018-01-16T23:01:05.151Z,70.58
2018-01-16T23:03:34.661Z,70.65
2018-01-16T23:06:05.549Z,70.96
2018-01-16T23:08:34.738Z,71.59
2018-01-16T23:11:04.546Z,71.51
2018-01-16T23:13:33.724Z,71.80
2018-01-16T23:16:04.259Z,71.75
2018-01-16T23:18:33.757Z,71.64
2018-01-16T23:21:03.137Z,71.53
2018-01-16T23:23:32.350Z,71.56
2018-01-16T23:26:02.595Z,71.77
2018-01-16T23:28:31.897Z,71.70
2018-01-16T23:31:01.035Z,71.56
2018-01-16T23:33:30.581Z,71.18
2018-01-16T23:35:59.706Z,70.97
2018-01-16T23:38:28.850Z,70.72
2018-01-16T23:40:58.268Z,70.70
2018-01-16T23:43:27.498Z,70.47
2018-01-16T23:45:56.653Z,70.02
2018-01-16T23:48:26.120Z,70.01
2018-01-16T23:50:55.266Z,69.99
2018-01-16T23:53:25.298Z,70.18
2018-01-16T23:55:54.779Z,70.16
2018-01-16T23:58:23.986Z,70.29
